sensor_id;sensor_type;location;lat;lon;timestamp;temperature;humidity
15707;DHT22;7953;54.302;10.128;2022-07-29T00:01:48;12.30;99.90
15707;DHT22;7953;54.302;10.128;2022-07-29T00:04:15;12.30;99.90
15707;DHT22;7953;54.302;10.128;2022-07-29T00:06:42;12.20;99.90
15707;DHT22;7953;54.302;10.128;2022-07-29T00:09:09;12.30;99.90
15707;DHT22;7953;54.302;10.128;2022-07-29T00:11:37;12.20;99.90
15707;DHT22;7953;54.302;10.128;2022-07-29T00:14:04;12.20;99.90
15707;DHT22;7953;54.302;10.128;2022-07-29T00:16:31;12.20;99.90
15707;DHT22;7953;54.302;10.128;2022-07-29T00:18:58;12.20;99.90
15707;DHT22;7953;54.302;10.128;2022-07-29T00:21:25;12.20;99.90
15707;DHT22;7953;54.302;10.128;2022-07-29T00:23:52;12.10;99.90
15707;DHT22;7953;54.302;10.128;2022-07-29T00:26:19;12.10;99.90
15707;DHT22;7953;54.302;10.128;2022-07-29T00:28:48;12.10;99.90
15707;DHT22;7953;54.302;10.128;2022-07-29T00:31:14;12.00;99.90
15707;DHT22;7953;54.302;10.128;2022-07-29T00:33:41;12.00;99.90
15707;DHT22;7953;54.302;10.128;2022-07-29T00:36:08;12.00;99.90
15707;DHT22;7953;54.302;10.128;2022-07-29T00:38:34;12.00;99.90
15707;DHT22;7953;54.302;10.128;2022-07-29T00:41:01;12.00;99.90
15707;DHT22;7953;54.302;10.128;2022-07-29T00:43:28;11.90;99.90
15707;DHT22;7953;54.302;10.128;2022-07-29T00:45:56;11.90;99.90
15707;DHT22;7953;54.302;10.128;2022-07-29T00:48:23;11.90;99.90
15707;DHT22;7953;54.302;10.128;2022-07-29T00:50:50;11.90;99.90
15707;DHT22;7953;54.302;10.128;2022-07-29T00:53:17;11.80;99.90
15707;DHT22;7953;54.302;10.128;2022-07-29T00:55:46;11.80;99.90
15707;DHT22;7953;54.302;10.128;2022-07-29T00:58:13;11.80;99.90
15707;DHT22;7953;54.302;10.128;2022-07-29T01:00:40;11.80;99.90
15707;DHT22;7953;54.302;10.128;2022-07-29T01:03:08;11.80;99.90
15707;DHT22;7953;54.302;10.128;2022-07-29T01:05:35;11.70;99.90
15707;DHT22;7953;54.302;10.128;2022-07-29T01:08:03;11.70;99.90
15707;DHT22;7953;54.302;10.128;2022-07-29T01:10:30;11.70;99.90
15707;DHT22;7953;54.302;10.128;2022-07-29T01:12:58;11.70;99.90
15707;DHT22;7953;54.302;10.128;2022-07-29T01:15:25;11.70;99.90
15707;DHT22;7953;54.302;10.128;2022-07-29T01:18:00;11.70;99.90
15707;DHT22;7953;54.302;10.128;2022-07-29T01:20:34;11.60;99.90
15707;DHT22;7953;54.302;10.128;2022-07-29T01:26:33;11.60;99.90
15707;DHT22;7953;54.302;10.128;2022-07-29T01:29:11;11.60;99.90
15707;DHT22;7953;54.302;10.128;2022-07-29T01:31:43;11.50;99.90
15707;DHT22;7953;54.302;10.128;2022-07-29T01:34:18;11.50;99.90
15707;DHT22;7953;54.302;10.128;2022-07-29T01:36:50;11.50;99.90
15707;DHT22;7953;54.302;10.128;2022-07-29T01:39:21;11.50;99.90
15707;DHT22;7953;54.302;10.128;2022-07-29T01:41:55;11.50;99.90
15707;DHT22;7953;54.302;10.128;2022-07-29T01:44:29;11.50;99.90
15707;DHT22;7953;54.302;10.128;2022-07-29T01:47:00;11.40;99.90
15707;DHT22;7953;54.302;10.128;2022-07-29T01:49:31;11.40;99.90
15707;DHT22;7953;54.302;10.128;2022-07-29T01:52:02;11.40;99.90
15707;DHT22;7953;54.302;10.128;2022-07-29T01:54:35;11.40;99.90
15707;DHT22;7953;54.302;10.128;2022-07-29T01:57:04;11.30;99.90
15707;DHT22;7953;54.302;10.128;2022-07-29T01:59:35;11.30;99.90
15707;DHT22;7953;54.302;10.128;2022-07-29T02:02:05;11.30;99.90
15707;DHT22;7953;54.302;10.128;2022-07-29T02:04:35;11.30;99.90
15707;DHT22;7953;54.302;10.128;2022-07-29T02:07:06;11.30;99.90
15707;DHT22;7953;54.302;10.128;2022-07-29T02:09:36;11.30;99.90
15707;DHT22;7953;54.302;10.128;2022-07-29T02:12:04;11.30;99.90
15707;DHT22;7953;54.302;10.128;2022-07-29T02:14:39;11.30;99.90
15707;DHT22;7953;54.302;10.128;2022-07-29T02:17:06;11.20;99.90
15707;DHT22;7953;54.302;10.128;2022-07-29T02:19:37;11.20;99.90
15707;DHT22;7953;54.302;10.128;2022-07-29T02:22:06;11.30;99.90
15707;DHT22;7953;54.302;10.128;2022-07-29T02:24:37;11.20;99.90
15707;DHT22;7953;54.302;10.128;2022-07-29T02:27:07;11.30;99.90
15707;DHT22;7953;54.302;10.128;2022-07-29T02:29:37;11.20;99.90
15707;DHT22;7953;54.302;10.128;2022-07-29T02:32:07;11.20;99.90
15707;DHT22;7953;54.302;10.128;2022-07-29T02:34:36;11.20;99.90
15707;DHT22;7953;54.302;10.128;2022-07-29T02:37:05;11.20;99.90
15707;DHT22;7953;54.302;10.128;2022-07-29T02:39:35;11.20;99.90
15707;DHT22;7953;54.302;10.128;2022-07-29T02:42:07;11.20;99.90
15707;DHT22;7953;54.302;10.128;2022-07-29T02:44:36;11.20;99.90
15707;DHT22;7953;54.302;10.128;2022-07-29T02:47:10;11.20;99.90
15707;DHT22;7953;54.302;10.128;2022-07-29T02:49:40;11.10;99.90
15707;DHT22;7953;54.302;10.128;2022-07-29T02:52:17;11.10;99.90
15707;DHT22;7953;54.302;10.128;2022-07-29T02:54:49;11.10;99.90
15707;DHT22;7953;54.302;10.128;2022-07-29T02:57:21;11.10;99.90
15707;DHT22;7953;54.302;10.128;2022-07-29T02:59:53;11.10;99.90
15707;DHT22;7953;54.302;10.128;2022-07-29T03:02:21;11.10;99.90
15707;DHT22;7953;54.302;10.128;2022-07-29T03:04:49;11.10;99.90
15707;DHT22;7953;54.302;10.128;2022-07-29T03:07:18;11.10;99.90
15707;DHT22;7953;54.302;10.128;2022-07-29T03:09:47;11.10;99.90
15707;DHT22;7953;54.302;10.128;2022-07-29T03:12:14;11.10;99.90
15707;DHT22;7953;54.302;10.128;2022-07-29T03:14:43;11.10;99.90
15707;DHT22;7953;54.302;10.128;2022-07-29T03:17:11;11.10;99.90
15707;DHT22;7953;54.302;10.128;2022-07-29T03:19:39;11.10;99.90
15707;DHT22;7953;54.302;10.128;2022-07-29T03:22:06;11.10;99.90
15707;DHT22;7953;54.302;10.128;2022-07-29T03:24:35;11.10;99.90
15707;DHT22;7953;54.302;10.128;2022-07-29T03:27:03;11.10;99.90
15707;DHT22;7953;54.302;10.128;2022-07-29T03:29:31;11.10;99.90
15707;DHT22;7953;54.302;10.128;2022-07-29T03:31:58;11.20;99.90
15707;DHT22;7953;54.302;10.128;2022-07-29T03:34:26;11.20;99.90
15707;DHT22;7953;54.302;10.128;2022-07-29T03:36:53;11.20;99.90
15707;DHT22;7953;54.302;10.128;2022-07-29T03:39:23;11.20;99.90
15707;DHT22;7953;54.302;10.128;2022-07-29T03:41:53;11.30;99.90
15707;DHT22;7953;54.302;10.128;2022-07-29T03:44:22;11.30;99.90
15707;DHT22;7953;54.302;10.128;2022-07-29T03:46:50;11.30;99.90
15707;DHT22;7953;54.302;10.128;2022-07-29T03:49:20;11.30;99.90
15707;DHT22;7953;54.302;10.128;2022-07-29T03:51:49;11.40;99.90
15707;DHT22;7953;54.302;10.128;2022-07-29T03:54:16;11.40;99.90
15707;DHT22;7953;54.302;10.128;2022-07-29T03:56:45;11.50;99.90
15707;DHT22;7953;54.302;10.128;2022-07-29T03:59:14;11.50;99.90
15707;DHT22;7953;54.302;10.128;2022-07-29T04:01:42;11.50;99.90
15707;DHT22;7953;54.302;10.128;2022-07-29T04:04:09;11.60;99.90
15707;DHT22;7953;54.302;10.128;2022-07-29T04:06:39;11.60;99.90
15707;DHT22;7953;54.302;10.128;2022-07-29T04:09:08;11.70;99.90
15707;DHT22;7953;54.302;10.128;2022-07-29T04:11:36;11.70;99.90
15707;DHT22;7953;54.302;10.128;2022-07-29T04:14:04;11.70;99.90
15707;DHT22;7953;54.302;10.128;2022-07-29T04:16:31;11.80;99.90
15707;DHT22;7953;54.302;10.128;2022-07-29T04:18:58;11.80;99.90
15707;DHT22;7953;54.302;10.128;2022-07-29T04:21:25;11.80;99.90
15707;DHT22;7953;54.302;10.128;2022-07-29T04:23:52;11.80;99.90
15707;DHT22;7953;54.302;10.128;2022-07-29T04:26:21;11.90;99.90
15707;DHT22;7953;54.302;10.128;2022-07-29T04:28:47;11.90;99.90
15707;DHT22;7953;54.302;10.128;2022-07-29T04:31:14;11.90;99.90
15707;DHT22;7953;54.302;10.128;2022-07-29T04:33:41;12.00;99.90
15707;DHT22;7953;54.302;10.128;2022-07-29T04:36:08;12.00;99.90
15707;DHT22;7953;54.302;10.128;2022-07-29T04:38:37;12.00;99.90
15707;DHT22;7953;54.302;10.128;2022-07-29T04:41:03;12.10;99.90
15707;DHT22;7953;54.302;10.128;2022-07-29T04:43:33;12.10;99.90
15707;DHT22;7953;54.302;10.128;2022-07-29T04:46:00;12.20;99.90
15707;DHT22;7953;54.302;10.128;2022-07-29T04:48:27;12.20;99.90
15707;DHT22;7953;54.302;10.128;2022-07-29T04:50:54;12.20;99.90
15707;DHT22;7953;54.302;10.128;2022-07-29T04:53:21;12.30;99.90
15707;DHT22;7953;54.302;10.128;2022-07-29T04:55:48;12.30;99.90
15707;DHT22;7953;54.302;10.128;2022-07-29T04:58:15;12.40;99.90
15707;DHT22;7953;54.302;10.128;2022-07-29T05:00:43;12.40;99.90
15707;DHT22;7953;54.302;10.128;2022-07-29T05:03:10;12.40;99.90
15707;DHT22;7953;54.302;10.128;2022-07-29T05:05:37;12.50;99.90
15707;DHT22;7953;54.302;10.128;2022-07-29T05:08:05;12.50;99.90
15707;DHT22;7953;54.302;10.128;2022-07-29T05:10:32;12.60;99.90
15707;DHT22;7953;54.302;10.128;2022-07-29T05:13:01;12.60;99.90
15707;DHT22;7953;54.302;10.128;2022-07-29T05:15:28;12.70;99.90
15707;DHT22;7953;54.302;10.128;2022-07-29T05:17:56;12.80;99.90
15707;DHT22;7953;54.302;10.128;2022-07-29T05:20:23;12.80;99.90
15707;DHT22;7953;54.302;10.128;2022-07-29T05:22:53;12.90;99.90
15707;DHT22;7953;54.302;10.128;2022-07-29T05:25:20;12.90;99.90
15707;DHT22;7953;54.302;10.128;2022-07-29T05:27:47;13.00;99.90
15707;DHT22;7953;54.302;10.128;2022-07-29T05:30:14;13.10;99.90
15707;DHT22;7953;54.302;10.128;2022-07-29T05:32:41;13.20;99.90
15707;DHT22;7953;54.302;10.128;2022-07-29T05:35:11;13.20;99.90
15707;DHT22;7953;54.302;10.128;2022-07-29T05:37:38;13.30;99.90
15707;DHT22;7953;54.302;10.128;2022-07-29T05:40:06;13.40;99.90
15707;DHT22;7953;54.302;10.128;2022-07-29T05:42:33;13.50;99.90
15707;DHT22;7953;54.302;10.128;2022-07-29T05:45:01;13.60;99.90
15707;DHT22;7953;54.302;10.128;2022-07-29T05:47:28;13.70;99.90
15707;DHT22;7953;54.302;10.128;2022-07-29T05:49:55;13.90;99.90
15707;DHT22;7953;54.302;10.128;2022-07-29T05:52:24;13.90;99.90
15707;DHT22;7953;54.302;10.128;2022-07-29T05:54:51;14.00;99.90
15707;DHT22;7953;54.302;10.128;2022-07-29T05:57:18;14.20;99.90
15707;DHT22;7953;54.302;10.128;2022-07-29T05:59:46;14.20;99.90
15707;DHT22;7953;54.302;10.128;2022-07-29T06:02:14;14.40;99.90
15707;DHT22;7953;54.302;10.128;2022-07-29T06:04:41;14.50;99.90
15707;DHT22;7953;54.302;10.128;2022-07-29T06:07:08;14.60;99.90
15707;DHT22;7953;54.302;10.128;2022-07-29T06:09:36;14.70;99.90
15707;DHT22;7953;54.302;10.128;2022-07-29T06:12:04;14.90;99.90
15707;DHT22;7953;54.302;10.128;2022-07-29T06:14:31;15.00;99.90
15707;DHT22;7953;54.302;10.128;2022-07-29T06:16:58;15.10;99.90
15707;DHT22;7953;54.302;10.128;2022-07-29T06:19:25;15.20;99.90
15707;DHT22;7953;54.302;10.128;2022-07-29T06:21:52;15.30;99.90
15707;DHT22;7953;54.302;10.128;2022-07-29T06:24:18;15.40;99.90
15707;DHT22;7953;54.302;10.128;2022-07-29T06:26:47;15.40;99.90
15707;DHT22;7953;54.302;10.128;2022-07-29T06:29:14;15.50;99.90
15707;DHT22;7953;54.302;10.128;2022-07-29T06:31:41;15.50;99.90
15707;DHT22;7953;54.302;10.128;2022-07-29T06:34:08;15.60;99.90
15707;DHT22;7953;54.302;10.128;2022-07-29T06:36:35;15.70;99.90
15707;DHT22;7953;54.302;10.128;2022-07-29T06:39:04;15.60;99.90
15707;DHT22;7953;54.302;10.128;2022-07-29T06:41:31;15.70;99.90
15707;DHT22;7953;54.302;10.128;2022-07-29T06:44:00;15.70;99.90
15707;DHT22;7953;54.302;10.128;2022-07-29T06:46:27;15.80;99.90
15707;DHT22;7953;54.302;10.128;2022-07-29T06:48:54;15.90;99.90
15707;DHT22;7953;54.302;10.128;2022-07-29T06:51:21;15.90;99.90
15707;DHT22;7953;54.302;10.128;2022-07-29T06:53:48;16.00;99.90
15707;DHT22;7953;54.302;10.128;2022-07-29T06:56:15;16.10;99.90
15707;DHT22;7953;54.302;10.128;2022-07-29T06:58:42;16.20;99.90
15707;DHT22;7953;54.302;10.128;2022-07-29T07:01:10;16.30;99.90
15707;DHT22;7953;54.302;10.128;2022-07-29T07:03:37;16.40;99.90
15707;DHT22;7953;54.302;10.128;2022-07-29T07:06:04;16.50;99.90
15707;DHT22;7953;54.302;10.128;2022-07-29T07:08:31;16.60;99.90
15707;DHT22;7953;54.302;10.128;2022-07-29T07:10:58;16.70;99.90
15707;DHT22;7953;54.302;10.128;2022-07-29T07:13:25;16.80;99.90
15707;DHT22;7953;54.302;10.128;2022-07-29T07:15:53;16.90;99.90
15707;DHT22;7953;54.302;10.128;2022-07-29T07:18:22;17.00;99.90
15707;DHT22;7953;54.302;10.128;2022-07-29T07:20:49;17.10;99.90
15707;DHT22;7953;54.302;10.128;2022-07-29T07:23:16;17.20;99.90
15707;DHT22;7953;54.302;10.128;2022-07-29T07:25:43;17.40;99.90
15707;DHT22;7953;54.302;10.128;2022-07-29T07:28:09;17.60;99.90
15707;DHT22;7953;54.302;10.128;2022-07-29T07:30:36;17.80;99.90
15707;DHT22;7953;54.302;10.128;2022-07-29T07:33:03;17.90;99.90
15707;DHT22;7953;54.302;10.128;2022-07-29T07:35:32;18.10;99.90
15707;DHT22;7953;54.302;10.128;2022-07-29T07:37:59;18.30;99.90
15707;DHT22;7953;54.302;10.128;2022-07-29T07:40:26;18.40;99.90
15707;DHT22;7953;54.302;10.128;2022-07-29T07:42:53;18.60;99.90
15707;DHT22;7953;54.302;10.128;2022-07-29T07:45:20;18.70;99.90
15707;DHT22;7953;54.302;10.128;2022-07-29T07:47:47;18.90;99.90
15707;DHT22;7953;54.302;10.128;2022-07-29T07:50:14;19.10;99.90
15707;DHT22;7953;54.302;10.128;2022-07-29T07:52:50;19.30;99.90
15707;DHT22;7953;54.302;10.128;2022-07-29T07:55:18;19.50;99.90
15707;DHT22;7953;54.302;10.128;2022-07-29T07:57:45;19.80;99.90
15707;DHT22;7953;54.302;10.128;2022-07-29T08:00:14;20.00;99.90
15707;DHT22;7953;54.302;10.128;2022-07-29T08:02:41;20.20;99.90
15707;DHT22;7953;54.302;10.128;2022-07-29T08:05:09;20.40;99.90
15707;DHT22;7953;54.302;10.128;2022-07-29T08:07:37;20.70;99.90
15707;DHT22;7953;54.302;10.128;2022-07-29T08:10:06;21.00;99.90
15707;DHT22;7953;54.302;10.128;2022-07-29T08:12:34;21.20;99.90
15707;DHT22;7953;54.302;10.128;2022-07-29T08:15:01;21.40;99.90
15707;DHT22;7953;54.302;10.128;2022-07-29T08:17:28;21.50;99.90
15707;DHT22;7953;54.302;10.128;2022-07-29T08:19:55;21.70;99.90
15707;DHT22;7953;54.302;10.128;2022-07-29T08:22:22;21.90;99.90
15707;DHT22;7953;54.302;10.128;2022-07-29T08:24:49;22.10;99.90
15707;DHT22;7953;54.302;10.128;2022-07-29T08:27:21;22.20;99.90
15707;DHT22;7953;54.302;10.128;2022-07-29T08:29:48;22.20;99.90
15707;DHT22;7953;54.302;10.128;2022-07-29T08:32:15;22.30;99.90
15707;DHT22;7953;54.302;10.128;2022-07-29T08:34:42;22.20;99.90
15707;DHT22;7953;54.302;10.128;2022-07-29T08:37:12;22.30;99.90
15707;DHT22;7953;54.302;10.128;2022-07-29T08:39:41;22.30;99.90
15707;DHT22;7953;54.302;10.128;2022-07-29T08:42:08;22.30;99.90
15707;DHT22;7953;54.302;10.128;2022-07-29T08:44:38;22.50;99.90
15707;DHT22;7953;54.302;10.128;2022-07-29T08:47:05;22.60;99.90
15707;DHT22;7953;54.302;10.128;2022-07-29T08:49:33;22.70;99.90
15707;DHT22;7953;54.302;10.128;2022-07-29T08:52:02;22.80;99.90
15707;DHT22;7953;54.302;10.128;2022-07-29T08:54:29;23.00;99.90
15707;DHT22;7953;54.302;10.128;2022-07-29T08:56:57;23.20;99.90
15707;DHT22;7953;54.302;10.128;2022-07-29T08:59:26;23.40;99.90
15707;DHT22;7953;54.302;10.128;2022-07-29T09:01:57;23.50;99.90
15707;DHT22;7953;54.302;10.128;2022-07-29T09:04:30;23.40;99.90
15707;DHT22;7953;54.302;10.128;2022-07-29T09:07:01;23.40;99.90
15707;DHT22;7953;54.302;10.128;2022-07-29T09:09:32;23.60;99.90
15707;DHT22;7953;54.302;10.128;2022-07-29T09:12:01;23.70;99.90
15707;DHT22;7953;54.302;10.128;2022-07-29T09:14:29;23.90;99.90
15707;DHT22;7953;54.302;10.128;2022-07-29T09:16:57;24.00;99.90
15707;DHT22;7953;54.302;10.128;2022-07-29T09:19:27;24.20;99.90
15707;DHT22;7953;54.302;10.128;2022-07-29T09:21:56;24.50;99.90
15707;DHT22;7953;54.302;10.128;2022-07-29T09:24:40;24.70;99.90
15707;DHT22;7953;54.302;10.128;2022-07-29T09:27:18;24.70;99.90
15707;DHT22;7953;54.302;10.128;2022-07-29T09:29:46;24.60;99.90
15707;DHT22;7953;54.302;10.128;2022-07-29T09:32:15;24.60;99.90
15707;DHT22;7953;54.302;10.128;2022-07-29T09:34:42;24.40;99.90
15707;DHT22;7953;54.302;10.128;2022-07-29T09:37:09;24.30;99.90
15707;DHT22;7953;54.302;10.128;2022-07-29T09:39:38;24.20;99.90
15707;DHT22;7953;54.302;10.128;2022-07-29T09:42:11;24.10;99.90
15707;DHT22;7953;54.302;10.128;2022-07-29T09:44:45;24.10;99.90
15707;DHT22;7953;54.302;10.128;2022-07-29T09:47:15;24.10;99.90
15707;DHT22;7953;54.302;10.128;2022-07-29T09:50:00;24.10;99.90
15707;DHT22;7953;54.302;10.128;2022-07-29T09:52:28;24.10;99.90
15707;DHT22;7953;54.302;10.128;2022-07-29T09:55:04;24.20;99.90
15707;DHT22;7953;54.302;10.128;2022-07-29T09:57:31;24.20;99.90
15707;DHT22;7953;54.302;10.128;2022-07-29T10:00:00;24.10;99.90
15707;DHT22;7953;54.302;10.128;2022-07-29T10:02:32;24.10;99.90
15707;DHT22;7953;54.302;10.128;2022-07-29T10:05:00;24.10;99.90
15707;DHT22;7953;54.302;10.128;2022-07-29T10:07:44;24.10;99.90
15707;DHT22;7953;54.302;10.128;2022-07-29T10:10:17;24.20;99.90
15707;DHT22;7953;54.302;10.128;2022-07-29T10:12:53;24.20;99.90
15707;DHT22;7953;54.302;10.128;2022-07-29T10:15:22;24.20;99.90
15707;DHT22;7953;54.302;10.128;2022-07-29T10:17:51;24.20;99.90
15707;DHT22;7953;54.302;10.128;2022-07-29T10:20:19;24.10;99.90
15707;DHT22;7953;54.302;10.128;2022-07-29T10:22:46;24.20;99.90
15707;DHT22;7953;54.302;10.128;2022-07-29T10:25:14;24.20;99.90
15707;DHT22;7953;54.302;10.128;2022-07-29T10:27:42;24.40;99.90
15707;DHT22;7953;54.302;10.128;2022-07-29T10:30:13;24.50;99.90
15707;DHT22;7953;54.302;10.128;2022-07-29T10:32:53;24.70;99.90
15707;DHT22;7953;54.302;10.128;2022-07-29T10:35:57;24.80;99.90
15707;DHT22;7953;54.302;10.128;2022-07-29T10:38:49;25.10;99.90
15707;DHT22;7953;54.302;10.128;2022-07-29T10:42:06;25.50;99.90
15707;DHT22;7953;54.302;10.128;2022-07-29T10:44:35;25.80;99.90
15707;DHT22;7953;54.302;10.128;2022-07-29T10:47:06;26.00;99.90
15707;DHT22;7953;54.302;10.128;2022-07-29T10:49:34;26.10;99.90
15707;DHT22;7953;54.302;10.128;2022-07-29T10:52:04;26.10;99.90
15707;DHT22;7953;54.302;10.128;2022-07-29T10:54:45;26.30;99.90
15707;DHT22;7953;54.302;10.128;2022-07-29T10:57:22;26.50;99.90
15707;DHT22;7953;54.302;10.128;2022-07-29T11:00:29;26.90;99.90
15707;DHT22;7953;54.302;10.128;2022-07-29T11:02:56;27.20;99.90
15707;DHT22;7953;54.302;10.128;2022-07-29T11:05:25;27.40;99.90
15707;DHT22;7953;54.302;10.128;2022-07-29T11:08:20;27.60;99.90
15707;DHT22;7953;54.302;10.128;2022-07-29T11:10:49;27.40;99.90
15707;DHT22;7953;54.302;10.128;2022-07-29T11:13:44;27.10;99.90
15707;DHT22;7953;54.302;10.128;2022-07-29T11:16:12;26.80;99.90
15707;DHT22;7953;54.302;10.128;2022-07-29T11:21:43;26.90;99.90
15707;DHT22;7953;54.302;10.128;2022-07-29T11:24:12;26.70;99.90
15707;DHT22;7953;54.302;10.128;2022-07-29T11:26:40;26.70;99.90
15707;DHT22;7953;54.302;10.128;2022-07-29T11:29:17;26.50;99.90
15707;DHT22;7953;54.302;10.128;2022-07-29T11:31:47;26.30;99.90
15707;DHT22;7953;54.302;10.128;2022-07-29T11:34:24;26.30;99.90
15707;DHT22;7953;54.302;10.128;2022-07-29T11:37:22;26.10;99.90
15707;DHT22;7953;54.302;10.128;2022-07-29T11:40:11;26.00;99.90
15707;DHT22;7953;54.302;10.128;2022-07-29T11:42:45;25.90;99.90
15707;DHT22;7953;54.302;10.128;2022-07-29T11:45:14;25.80;99.90
15707;DHT22;7953;54.302;10.128;2022-07-29T11:47:48;25.80;99.90
15707;DHT22;7953;54.302;10.128;2022-07-29T11:50:17;25.80;99.90
15707;DHT22;7953;54.302;10.128;2022-07-29T11:52:47;25.80;99.90
15707;DHT22;7953;54.302;10.128;2022-07-29T11:55:15;26.00;99.90
15707;DHT22;7953;54.302;10.128;2022-07-29T11:57:46;26.20;99.90
15707;DHT22;7953;54.302;10.128;2022-07-29T12:00:22;26.40;99.90
15707;DHT22;7953;54.302;10.128;2022-07-29T12:02:49;26.60;99.90
15707;DHT22;7953;54.302;10.128;2022-07-29T12:05:16;26.80;99.90
15707;DHT22;7953;54.302;10.128;2022-07-29T12:07:43;26.90;99.90
15707;DHT22;7953;54.302;10.128;2022-07-29T12:10:12;27.00;99.90
15707;DHT22;7953;54.302;10.128;2022-07-29T12:12:39;27.00;99.90
15707;DHT22;7953;54.302;10.128;2022-07-29T12:15:16;26.90;99.90
15707;DHT22;7953;54.302;10.128;2022-07-29T12:17:46;26.90;99.90
15707;DHT22;7953;54.302;10.128;2022-07-29T12:20:14;26.90;99.90
15707;DHT22;7953;54.302;10.128;2022-07-29T12:22:48;27.00;99.90
15707;DHT22;7953;54.302;10.128;2022-07-29T12:25:16;27.00;99.90
15707;DHT22;7953;54.302;10.128;2022-07-29T12:27:44;26.90;99.90
15707;DHT22;7953;54.302;10.128;2022-07-29T12:30:13;26.70;99.90
15707;DHT22;7953;54.302;10.128;2022-07-29T12:32:42;26.50;99.90
15707;DHT22;7953;54.302;10.128;2022-07-29T12:35:11;26.40;99.90
15707;DHT22;7953;54.302;10.128;2022-07-29T12:37:41;26.30;99.90
15707;DHT22;7953;54.302;10.128;2022-07-29T12:40:09;26.20;99.90
15707;DHT22;7953;54.302;10.128;2022-07-29T12:42:38;26.10;99.90
15707;DHT22;7953;54.302;10.128;2022-07-29T12:45:07;26.00;99.90
15707;DHT22;7953;54.302;10.128;2022-07-29T12:47:51;26.00;99.90
15707;DHT22;7953;54.302;10.128;2022-07-29T12:50:18;25.90;99.90
15707;DHT22;7953;54.302;10.128;2022-07-29T12:52:45;26.00;99.90
15707;DHT22;7953;54.302;10.128;2022-07-29T12:55:12;26.00;99.90
15707;DHT22;7953;54.302;10.128;2022-07-29T12:57:51;26.00;99.90
15707;DHT22;7953;54.302;10.128;2022-07-29T13:00:22;26.10;99.90
15707;DHT22;7953;54.302;10.128;2022-07-29T13:02:54;26.10;99.90
15707;DHT22;7953;54.302;10.128;2022-07-29T13:05:22;26.10;99.90
15707;DHT22;7953;54.302;10.128;2022-07-29T13:07:50;26.10;99.90
15707;DHT22;7953;54.302;10.128;2022-07-29T13:10:19;26.10;99.90
15707;DHT22;7953;54.302;10.128;2022-07-29T13:13:05;26.10;99.90
15707;DHT22;7953;54.302;10.128;2022-07-29T13:15:32;26.00;99.90
15707;DHT22;7953;54.302;10.128;2022-07-29T13:17:59;25.80;99.90
15707;DHT22;7953;54.302;10.128;2022-07-29T13:20:27;25.70;99.90
15707;DHT22;7953;54.302;10.128;2022-07-29T13:22:55;25.70;99.90
15707;DHT22;7953;54.302;10.128;2022-07-29T13:25:27;25.50;99.90
15707;DHT22;7953;54.302;10.128;2022-07-29T13:27:54;25.50;99.90
15707;DHT22;7953;54.302;10.128;2022-07-29T13:30:23;25.40;99.90
15707;DHT22;7953;54.302;10.128;2022-07-29T13:32:51;25.30;99.90
15707;DHT22;7953;54.302;10.128;2022-07-29T13:35:19;25.30;99.90
15707;DHT22;7953;54.302;10.128;2022-07-29T13:37:46;25.20;99.90
15707;DHT22;7953;54.302;10.128;2022-07-29T13:40:13;25.30;99.90
15707;DHT22;7953;54.302;10.128;2022-07-29T13:42:41;25.20;99.90
15707;DHT22;7953;54.302;10.128;2022-07-29T13:45:09;25.20;99.90
15707;DHT22;7953;54.302;10.128;2022-07-29T13:47:38;25.10;99.90
15707;DHT22;7953;54.302;10.128;2022-07-29T13:50:07;25.00;99.90
15707;DHT22;7953;54.302;10.128;2022-07-29T13:52:36;25.00;99.90
15707;DHT22;7953;54.302;10.128;2022-07-29T13:55:05;24.90;99.90
15707;DHT22;7953;54.302;10.128;2022-07-29T13:57:32;24.90;99.90
15707;DHT22;7953;54.302;10.128;2022-07-29T13:59:59;24.80;99.90
15707;DHT22;7953;54.302;10.128;2022-07-29T14:02:26;24.80;99.90
15707;DHT22;7953;54.302;10.128;2022-07-29T14:04:54;24.90;99.90
15707;DHT22;7953;54.302;10.128;2022-07-29T14:07:22;24.80;99.90
15707;DHT22;7953;54.302;10.128;2022-07-29T14:09:49;24.80;99.90
15707;DHT22;7953;54.302;10.128;2022-07-29T14:12:16;24.80;99.90
15707;DHT22;7953;54.302;10.128;2022-07-29T14:14:42;24.80;99.90
15707;DHT22;7953;54.302;10.128;2022-07-29T14:17:09;24.70;99.90
15707;DHT22;7953;54.302;10.128;2022-07-29T14:19:37;24.70;99.90
15707;DHT22;7953;54.302;10.128;2022-07-29T14:22:07;24.70;99.90
15707;DHT22;7953;54.302;10.128;2022-07-29T14:24:34;24.60;99.90
15707;DHT22;7953;54.302;10.128;2022-07-29T14:27:01;24.60;99.90
15707;DHT22;7953;54.302;10.128;2022-07-29T14:29:28;24.60;99.90
15707;DHT22;7953;54.302;10.128;2022-07-29T14:31:55;24.60;99.90
15707;DHT22;7953;54.302;10.128;2022-07-29T14:34:22;24.60;99.90
15707;DHT22;7953;54.302;10.128;2022-07-29T14:36:49;24.50;99.90
15707;DHT22;7953;54.302;10.128;2022-07-29T14:39:17;24.50;99.90
15707;DHT22;7953;54.302;10.128;2022-07-29T14:41:44;24.50;99.90
15707;DHT22;7953;54.302;10.128;2022-07-29T14:44:11;24.60;99.90
15707;DHT22;7953;54.302;10.128;2022-07-29T14:46:38;24.70;99.90
15707;DHT22;7953;54.302;10.128;2022-07-29T14:49:05;24.90;99.90
15707;DHT22;7953;54.302;10.128;2022-07-29T14:51:32;24.90;99.90
15707;DHT22;7953;54.302;10.128;2022-07-29T14:53:59;25.10;99.90
15707;DHT22;7953;54.302;10.128;2022-07-29T14:56:28;25.20;99.90
15707;DHT22;7953;54.302;10.128;2022-07-29T14:58:55;25.40;99.90
15707;DHT22;7953;54.302;10.128;2022-07-29T15:01:22;25.60;99.90
15707;DHT22;7953;54.302;10.128;2022-07-29T15:03:49;25.70;99.90
15707;DHT22;7953;54.302;10.128;2022-07-29T15:06:17;25.90;99.90
15707;DHT22;7953;54.302;10.128;2022-07-29T15:08:44;26.00;99.90
15707;DHT22;7953;54.302;10.128;2022-07-29T15:11:11;26.10;99.90
15707;DHT22;7953;54.302;10.128;2022-07-29T15:13:39;26.10;99.90
15707;DHT22;7953;54.302;10.128;2022-07-29T15:16:07;26.10;99.90
15707;DHT22;7953;54.302;10.128;2022-07-29T15:18:34;26.10;99.90
15707;DHT22;7953;54.302;10.128;2022-07-29T15:21:03;26.00;99.90
15707;DHT22;7953;54.302;10.128;2022-07-29T15:23:32;25.90;99.90
15707;DHT22;7953;54.302;10.128;2022-07-29T15:25:59;25.90;99.90
15707;DHT22;7953;54.302;10.128;2022-07-29T15:28:26;25.80;99.90
15707;DHT22;7953;54.302;10.128;2022-07-29T15:30:54;25.80;99.90
15707;DHT22;7953;54.302;10.128;2022-07-29T15:33:21;25.90;99.90
15707;DHT22;7953;54.302;10.128;2022-07-29T15:35:48;25.90;99.90
15707;DHT22;7953;54.302;10.128;2022-07-29T15:38:16;25.90;99.90
15707;DHT22;7953;54.302;10.128;2022-07-29T15:40:43;25.90;99.90
15707;DHT22;7953;54.302;10.128;2022-07-29T15:43:11;26.00;99.90
15707;DHT22;7953;54.302;10.128;2022-07-29T15:45:39;25.80;99.90
15707;DHT22;7953;54.302;10.128;2022-07-29T15:48:08;25.60;99.90
15707;DHT22;7953;54.302;10.128;2022-07-29T15:50:36;25.50;99.90